Terminal Aerodrome Forecast
Issued by NWS Green Bay, WI

Home | Current Version | Previous Version | Text Only | Print | Product List | Glossary Off
Versions: 1 2 3 4 5 6 7 8 9 10 11 12 13 14 15 16 17 18 19 20 21 22 23 24 25 26 27 28 29 30 31 32 33 34 35 36 37 38 39 40 41 42 43 44

000
FTUS43 KGRB 202300
TAFGRB
TAF
KGRB 202337Z 2100/2124 11003KT P6SM SCT035
     FM210500 10003KT 3SM BR SCT035 BKN200
      TEMPO 2109/2113 1SM BR SCT002
     FM211600 12006KT P6SM VCSH SCT035 BKN100
      TEMPO 2120/2124 2SM TSRA BKN020CB OVC035=

USA.gov is the U.S. government's official web portal to all federal, state and local government web resources and services.